Главная страница
METAR-TAF:

METAR-TAF

Аэропорты :

Фёрде, Норвегия

широта: 61-27N, долгота: 005-52E, высота над уровнем моря: 150 м

Текущие метеонаблюдения

Эта сводка был подготовлена 17 минут назад, в 16:50 UTC
Ветер 3 Узел от южный-юго-западный
Температура 17°C
Влажность 55%
Давление 1003 hPa
Видимость 10 км и более
небольшая облачность на высоте 6000 фута
Отдельные облака на высоте 8000 фута
Рассеянная облачность на высоте 13000 фута

METAR: ENBL 141650Z 21003KT 9999 FEW060 SCT080 BKN130 17/08 Q1003

Время: 19:07 (17:07 UTC)


TAF: отсутствует

Метеонаблюдения и прогнозы для более 4000 аэропортов (сводки METAR и TAF).

Имеющиеся станции представлены на карте желтыми и красными точками.

Чтобы увидеть название станции, наведите на нее мышь.

Затем щелкните, чтобы увидеть метеонаблюдения и метеопрогнозы.

Управление картой: чтобы увеличить масштаб, щелкните зеленые кнопки с черным крестиком; чтобы уменьшить масштаб, щелкните зеленую кнопку с тире; для просмотра соседних карт щелкайте зеленые стрелки.


METAR-TAF: